sensor_id;sensor_type;location;lat;lon;timestamp;P1;durP1;ratioP1;P2;durP2;ratioP2
74799;SDS011;63326;45.088;7.658;2022-10-18T00:00:44;32.60;;;13.75;;
74799;SDS011;63326;45.088;7.658;2022-10-18T00:03:11;25.30;;;14.15;;
74799;SDS011;63326;45.088;7.658;2022-10-18T00:05:37;34.10;;;14.82;;
74799;SDS011;63326;45.088;7.658;2022-10-18T00:08:04;26.58;;;14.10;;
74799;SDS011;63326;45.088;7.658;2022-10-18T00:10:31;28.75;;;13.88;;
74799;SDS011;63326;45.088;7.658;2022-10-18T00:12:57;26.45;;;15.50;;
74799;SDS011;63326;45.088;7.658;2022-10-18T00:15:24;23.17;;;12.52;;
74799;SDS011;63326;45.088;7.658;2022-10-18T00:17:50;27.83;;;13.52;;
74799;SDS011;63326;45.088;7.658;2022-10-18T00:20:17;29.00;;;14.13;;
74799;SDS011;63326;45.088;7.658;2022-10-18T00:22:43;27.25;;;13.73;;
74799;SDS011;63326;45.088;7.658;2022-10-18T00:25:10;26.05;;;14.43;;
74799;SDS011;63326;45.088;7.658;2022-10-18T00:27:37;29.73;;;14.98;;
74799;SDS011;63326;45.088;7.658;2022-10-18T00:30:03;31.30;;;15.38;;
74799;SDS011;63326;45.088;7.658;2022-10-18T00:32:34;30.83;;;17.02;;
74799;SDS011;63326;45.088;7.658;2022-10-18T00:35:02;28.45;;;13.20;;
74799;SDS011;63326;45.088;7.658;2022-10-18T00:37:29;26.10;;;12.88;;
74799;SDS011;63326;45.088;7.658;2022-10-18T00:39:56;27.48;;;13.43;;
74799;SDS011;63326;45.088;7.658;2022-10-18T00:42:24;26.83;;;13.27;;
74799;SDS011;63326;45.088;7.658;2022-10-18T00:45:01;29.52;;;14.25;;
74799;SDS011;63326;45.088;7.658;2022-10-18T00:47:44;23.85;;;12.05;;
74799;SDS011;63326;45.088;7.658;2022-10-18T00:50:12;26.08;;;13.68;;
74799;SDS011;63326;45.088;7.658;2022-10-18T00:52:41;25.15;;;13.05;;
74799;SDS011;63326;45.088;7.658;2022-10-18T00:55:10;26.73;;;12.50;;
74799;SDS011;63326;45.088;7.658;2022-10-18T00:57:37;25.50;;;13.73;;
74799;SDS011;63326;45.088;7.658;2022-10-18T01:00:05;28.70;;;12.68;;
74799;SDS011;63326;45.088;7.658;2022-10-18T01:02:35;23.42;;;14.02;;
74799;SDS011;63326;45.088;7.658;2022-10-18T01:05:03;25.48;;;11.80;;
74799;SDS011;63326;45.088;7.658;2022-10-18T01:10:26;25.58;;;11.80;;
74799;SDS011;63326;45.088;7.658;2022-10-18T01:15:47;23.63;;;12.32;;
74799;SDS011;63326;45.088;7.658;2022-10-18T01:18:18;25.05;;;12.05;;
74799;SDS011;63326;45.088;7.658;2022-10-18T01:30:01;22.40;;;12.77;;
74799;SDS011;63326;45.088;7.658;2022-10-18T01:32:40;26.00;;;13.70;;
74799;SDS011;63326;45.088;7.658;2022-10-18T01:35:13;25.90;;;12.88;;
74799;SDS011;63326;45.088;7.658;2022-10-18T01:37:44;26.00;;;12.98;;
74799;SDS011;63326;45.088;7.658;2022-10-18T01:40:11;25.23;;;11.55;;
74799;SDS011;63326;45.088;7.658;2022-10-18T01:42:39;23.95;;;13.32;;
74799;SDS011;63326;45.088;7.658;2022-10-18T01:45:07;24.85;;;11.85;;
74799;SDS011;63326;45.088;7.658;2022-10-18T01:47:34;25.15;;;12.48;;
74799;SDS011;63326;45.088;7.658;2022-10-18T01:50:02;25.60;;;13.07;;
74799;SDS011;63326;45.088;7.658;2022-10-18T01:52:31;25.25;;;13.25;;
74799;SDS011;63326;45.088;7.658;2022-10-18T01:54:58;27.10;;;11.68;;
74799;SDS011;63326;45.088;7.658;2022-10-18T01:57:33;24.30;;;13.10;;
74799;SDS011;63326;45.088;7.658;2022-10-18T02:00:05;26.77;;;13.30;;
74799;SDS011;63326;45.088;7.658;2022-10-18T02:08:03;26.02;;;14.40;;
74799;SDS011;63326;45.088;7.658;2022-10-18T02:10:50;23.75;;;11.05;;
74799;SDS011;63326;45.088;7.658;2022-10-18T02:13:20;27.42;;;13.18;;
74799;SDS011;63326;45.088;7.658;2022-10-18T02:15:49;26.60;;;11.93;;
74799;SDS011;63326;45.088;7.658;2022-10-18T02:18:29;24.65;;;11.18;;
74799;SDS011;63326;45.088;7.658;2022-10-18T02:21:00;21.98;;;11.15;;
74799;SDS011;63326;45.088;7.658;2022-10-18T02:23:29;23.98;;;11.80;;
74799;SDS011;63326;45.088;7.658;2022-10-18T02:25:56;27.25;;;13.52;;
74799;SDS011;63326;45.088;7.658;2022-10-18T02:28:22;22.33;;;10.98;;
74799;SDS011;63326;45.088;7.658;2022-10-18T02:31:13;24.90;;;13.50;;
74799;SDS011;63326;45.088;7.658;2022-10-18T02:34:09;27.05;;;11.65;;
74799;SDS011;63326;45.088;7.658;2022-10-18T02:36:54;23.83;;;12.05;;
74799;SDS011;63326;45.088;7.658;2022-10-18T02:39:26;20.55;;;10.93;;
74799;SDS011;63326;45.088;7.658;2022-10-18T02:41:56;22.00;;;13.02;;
74799;SDS011;63326;45.088;7.658;2022-10-18T02:44:23;24.48;;;11.48;;
74799;SDS011;63326;45.088;7.658;2022-10-18T02:46:49;24.52;;;12.38;;
74799;SDS011;63326;45.088;7.658;2022-10-18T02:49:16;29.73;;;12.88;;
74799;SDS011;63326;45.088;7.658;2022-10-18T02:51:43;25.85;;;11.95;;
74799;SDS011;63326;45.088;7.658;2022-10-18T02:54:09;22.92;;;11.85;;
74799;SDS011;63326;45.088;7.658;2022-10-18T02:56:36;22.88;;;11.55;;
74799;SDS011;63326;45.088;7.658;2022-10-18T02:59:02;23.15;;;12.50;;
74799;SDS011;63326;45.088;7.658;2022-10-18T03:01:30;23.45;;;11.82;;
74799;SDS011;63326;45.088;7.658;2022-10-18T03:03:58;26.20;;;14.30;;
74799;SDS011;63326;45.088;7.658;2022-10-18T03:06:24;20.90;;;10.55;;
74799;SDS011;63326;45.088;7.658;2022-10-18T03:08:51;25.42;;;12.70;;
74799;SDS011;63326;45.088;7.658;2022-10-18T03:11:17;21.30;;;11.75;;
74799;SDS011;63326;45.088;7.658;2022-10-18T03:13:44;21.50;;;10.45;;
74799;SDS011;63326;45.088;7.658;2022-10-18T03:16:11;23.65;;;11.90;;
74799;SDS011;63326;45.088;7.658;2022-10-18T03:18:37;23.58;;;12.38;;
74799;SDS011;63326;45.088;7.658;2022-10-18T03:21:05;24.75;;;12.30;;
74799;SDS011;63326;45.088;7.658;2022-10-18T03:23:32;26.52;;;12.40;;
74799;SDS011;63326;45.088;7.658;2022-10-18T03:25:58;27.70;;;12.32;;
74799;SDS011;63326;45.088;7.658;2022-10-18T03:28:25;25.25;;;12.15;;
74799;SDS011;63326;45.088;7.658;2022-10-18T03:30:52;26.58;;;11.32;;
74799;SDS011;63326;45.088;7.658;2022-10-18T03:33:18;27.17;;;11.27;;
74799;SDS011;63326;45.088;7.658;2022-10-18T03:35:45;22.67;;;10.55;;
74799;SDS011;63326;45.088;7.658;2022-10-18T03:38:11;22.67;;;10.80;;
74799;SDS011;63326;45.088;7.658;2022-10-18T03:40:38;18.30;;;10.15;;
74799;SDS011;63326;45.088;7.658;2022-10-18T03:43:04;22.20;;;12.15;;
74799;SDS011;63326;45.088;7.658;2022-10-18T03:45:31;30.65;;;12.40;;
74799;SDS011;63326;45.088;7.658;2022-10-18T03:47:57;24.50;;;12.98;;
74799;SDS011;63326;45.088;7.658;2022-10-18T03:50:24;21.25;;;12.10;;
74799;SDS011;63326;45.088;7.658;2022-10-18T03:52:50;20.67;;;11.02;;
74799;SDS011;63326;45.088;7.658;2022-10-18T03:55:19;21.95;;;10.85;;
74799;SDS011;63326;45.088;7.658;2022-10-18T03:57:45;20.15;;;13.05;;
74799;SDS011;63326;45.088;7.658;2022-10-18T04:00:12;29.35;;;13.48;;
74799;SDS011;63326;45.088;7.658;2022-10-18T04:02:39;26.75;;;10.57;;
74799;SDS011;63326;45.088;7.658;2022-10-18T04:05:06;24.73;;;11.85;;
74799;SDS011;63326;45.088;7.658;2022-10-18T04:07:33;24.00;;;11.15;;
74799;SDS011;63326;45.088;7.658;2022-10-18T04:10:05;21.67;;;11.40;;
74799;SDS011;63326;45.088;7.658;2022-10-18T04:12:32;26.27;;;11.85;;
74799;SDS011;63326;45.088;7.658;2022-10-18T04:14:59;21.90;;;11.10;;
74799;SDS011;63326;45.088;7.658;2022-10-18T04:17:25;24.52;;;11.57;;
74799;SDS011;63326;45.088;7.658;2022-10-18T04:19:52;22.02;;;10.93;;
74799;SDS011;63326;45.088;7.658;2022-10-18T04:22:18;22.27;;;11.05;;
74799;SDS011;63326;45.088;7.658;2022-10-18T04:24:45;19.27;;;10.05;;
74799;SDS011;63326;45.088;7.658;2022-10-18T04:27:11;20.42;;;10.68;;
74799;SDS011;63326;45.088;7.658;2022-10-18T04:29:38;24.50;;;11.10;;
74799;SDS011;63326;45.088;7.658;2022-10-18T04:32:04;24.00;;;13.27;;
74799;SDS011;63326;45.088;7.658;2022-10-18T04:34:31;25.13;;;10.27;;
74799;SDS011;63326;45.088;7.658;2022-10-18T04:36:58;27.02;;;12.77;;
74799;SDS011;63326;45.088;7.658;2022-10-18T04:39:24;25.40;;;12.43;;
74799;SDS011;63326;45.088;7.658;2022-10-18T04:41:51;21.63;;;10.40;;
74799;SDS011;63326;45.088;7.658;2022-10-18T04:44:17;23.10;;;11.70;;
74799;SDS011;63326;45.088;7.658;2022-10-18T04:46:44;26.25;;;11.93;;
74799;SDS011;63326;45.088;7.658;2022-10-18T04:49:10;24.58;;;12.02;;
74799;SDS011;63326;45.088;7.658;2022-10-18T04:51:37;28.90;;;11.18;;
74799;SDS011;63326;45.088;7.658;2022-10-18T04:54:03;21.27;;;11.07;;
74799;SDS011;63326;45.088;7.658;2022-10-18T04:56:30;23.90;;;11.60;;
74799;SDS011;63326;45.088;7.658;2022-10-18T04:58:57;22.85;;;12.32;;
74799;SDS011;63326;45.088;7.658;2022-10-18T05:01:24;21.67;;;12.18;;
74799;SDS011;63326;45.088;7.658;2022-10-18T05:03:51;24.33;;;12.85;;
74799;SDS011;63326;45.088;7.658;2022-10-18T05:06:22;19.63;;;9.77;;
74799;SDS011;63326;45.088;7.658;2022-10-18T05:08:48;24.10;;;12.13;;
74799;SDS011;63326;45.088;7.658;2022-10-18T05:11:15;23.95;;;11.57;;
74799;SDS011;63326;45.088;7.658;2022-10-18T05:13:41;22.25;;;11.68;;
74799;SDS011;63326;45.088;7.658;2022-10-18T05:16:12;21.88;;;10.07;;
74799;SDS011;63326;45.088;7.658;2022-10-18T05:18:38;18.42;;;11.73;;
74799;SDS011;63326;45.088;7.658;2022-10-18T05:21:05;21.80;;;10.32;;
74799;SDS011;63326;45.088;7.658;2022-10-18T05:23:31;23.27;;;11.57;;
74799;SDS011;63326;45.088;7.658;2022-10-18T05:26:02;25.63;;;11.55;;
74799;SDS011;63326;45.088;7.658;2022-10-18T05:28:29;28.58;;;12.63;;
74799;SDS011;63326;45.088;7.658;2022-10-18T05:31:06;19.20;;;11.30;;
74799;SDS011;63326;45.088;7.658;2022-10-18T05:33:33;21.90;;;9.85;;
74799;SDS011;63326;45.088;7.658;2022-10-18T05:36:00;25.02;;;12.18;;
74799;SDS011;63326;45.088;7.658;2022-10-18T05:38:26;23.05;;;11.43;;
74799;SDS011;63326;45.088;7.658;2022-10-18T05:40:56;19.45;;;10.45;;
74799;SDS011;63326;45.088;7.658;2022-10-18T05:43:26;17.95;;;9.90;;
74799;SDS011;63326;45.088;7.658;2022-10-18T05:45:53;22.10;;;11.82;;
74799;SDS011;63326;45.088;7.658;2022-10-18T05:48:20;20.40;;;10.43;;
74799;SDS011;63326;45.088;7.658;2022-10-18T05:50:46;22.15;;;11.05;;
74799;SDS011;63326;45.088;7.658;2022-10-18T05:53:13;26.20;;;11.15;;
74799;SDS011;63326;45.088;7.658;2022-10-18T05:56:00;23.77;;;12.18;;
74799;SDS011;63326;45.088;7.658;2022-10-18T05:58:26;22.13;;;11.13;;
74799;SDS011;63326;45.088;7.658;2022-10-18T06:00:53;21.95;;;10.77;;
74799;SDS011;63326;45.088;7.658;2022-10-18T06:03:19;24.75;;;10.98;;
74799;SDS011;63326;45.088;7.658;2022-10-18T06:05:46;20.45;;;10.55;;
74799;SDS011;63326;45.088;7.658;2022-10-18T06:08:12;25.55;;;11.60;;
74799;SDS011;63326;45.088;7.658;2022-10-18T06:10:39;22.00;;;11.15;;
74799;SDS011;63326;45.088;7.658;2022-10-18T06:13:06;23.00;;;13.05;;
74799;SDS011;63326;45.088;7.658;2022-10-18T06:15:32;22.27;;;10.07;;
74799;SDS011;63326;45.088;7.658;2022-10-18T06:17:59;22.25;;;11.75;;
74799;SDS011;63326;45.088;7.658;2022-10-18T06:20:25;22.83;;;9.75;;
74799;SDS011;63326;45.088;7.658;2022-10-18T06:22:52;24.90;;;12.23;;
74799;SDS011;63326;45.088;7.658;2022-10-18T06:25:18;20.17;;;10.88;;
74799;SDS011;63326;45.088;7.658;2022-10-18T06:27:45;22.25;;;12.15;;
74799;SDS011;63326;45.088;7.658;2022-10-18T06:30:11;21.08;;;11.43;;
74799;SDS011;63326;45.088;7.658;2022-10-18T06:32:38;20.55;;;10.05;;
74799;SDS011;63326;45.088;7.658;2022-10-18T06:35:05;18.95;;;10.25;;
74799;SDS011;63326;45.088;7.658;2022-10-18T06:37:31;27.15;;;11.40;;
74799;SDS011;63326;45.088;7.658;2022-10-18T06:40:01;25.63;;;12.45;;
74799;SDS011;63326;45.088;7.658;2022-10-18T06:42:27;22.00;;;10.20;;
74799;SDS011;63326;45.088;7.658;2022-10-18T06:44:54;21.55;;;11.10;;
74799;SDS011;63326;45.088;7.658;2022-10-18T06:47:20;25.17;;;11.00;;
74799;SDS011;63326;45.088;7.658;2022-10-18T06:49:47;22.55;;;10.55;;
74799;SDS011;63326;45.088;7.658;2022-10-18T06:52:15;22.92;;;10.77;;
74799;SDS011;63326;45.088;7.658;2022-10-18T06:54:42;21.50;;;11.52;;
74799;SDS011;63326;45.088;7.658;2022-10-18T06:57:10;21.55;;;12.23;;
74799;SDS011;63326;45.088;7.658;2022-10-18T06:59:37;24.10;;;12.10;;
74799;SDS011;63326;45.088;7.658;2022-10-18T07:02:03;22.50;;;11.15;;
74799;SDS011;63326;45.088;7.658;2022-10-18T07:04:30;26.98;;;12.02;;
74799;SDS011;63326;45.088;7.658;2022-10-18T07:06:56;25.00;;;12.77;;
74799;SDS011;63326;45.088;7.658;2022-10-18T07:09:23;23.83;;;10.73;;
74799;SDS011;63326;45.088;7.658;2022-10-18T07:11:49;21.40;;;11.13;;
74799;SDS011;63326;45.088;7.658;2022-10-18T07:14:17;28.30;;;11.48;;
74799;SDS011;63326;45.088;7.658;2022-10-18T07:16:44;23.77;;;11.80;;
74799;SDS011;63326;45.088;7.658;2022-10-18T07:19:11;21.67;;;10.70;;
74799;SDS011;63326;45.088;7.658;2022-10-18T07:21:37;23.02;;;11.93;;
74799;SDS011;63326;45.088;7.658;2022-10-18T07:24:04;18.02;;;9.25;;
74799;SDS011;63326;45.088;7.658;2022-10-18T07:26:31;21.80;;;10.93;;
74799;SDS011;63326;45.088;7.658;2022-10-18T07:29:06;20.65;;;10.88;;
74799;SDS011;63326;45.088;7.658;2022-10-18T07:31:35;25.77;;;12.32;;
74799;SDS011;63326;45.088;7.658;2022-10-18T07:36:30;21.55;;;10.50;;
74799;SDS011;63326;45.088;7.658;2022-10-18T07:38:57;20.65;;;11.40;;
74799;SDS011;63326;45.088;7.658;2022-10-18T07:41:24;22.77;;;11.15;;
74799;SDS011;63326;45.088;7.658;2022-10-18T07:43:51;20.45;;;10.38;;
74799;SDS011;63326;45.088;7.658;2022-10-18T07:46:19;20.15;;;10.63;;
74799;SDS011;63326;45.088;7.658;2022-10-18T07:48:46;21.02;;;10.15;;
74799;SDS011;63326;45.088;7.658;2022-10-18T07:51:13;19.05;;;9.95;;
74799;SDS011;63326;45.088;7.658;2022-10-18T07:53:40;20.92;;;11.00;;
74799;SDS011;63326;45.088;7.658;2022-10-18T07:56:07;21.42;;;8.68;;
74799;SDS011;63326;45.088;7.658;2022-10-18T07:58:41;25.08;;;11.40;;
74799;SDS011;63326;45.088;7.658;2022-10-18T08:01:08;20.40;;;9.50;;
74799;SDS011;63326;45.088;7.658;2022-10-18T08:03:35;19.83;;;11.05;;
74799;SDS011;63326;45.088;7.658;2022-10-18T08:06:02;24.88;;;10.80;;
74799;SDS011;63326;45.088;7.658;2022-10-18T08:08:30;22.80;;;9.90;;
74799;SDS011;63326;45.088;7.658;2022-10-18T08:11:07;21.05;;;9.95;;
74799;SDS011;63326;45.088;7.658;2022-10-18T08:13:39;22.90;;;11.30;;
74799;SDS011;63326;45.088;7.658;2022-10-18T08:16:08;20.33;;;10.75;;
74799;SDS011;63326;45.088;7.658;2022-10-18T08:18:36;23.00;;;10.25;;
74799;SDS011;63326;45.088;7.658;2022-10-18T08:21:04;18.40;;;9.43;;
74799;SDS011;63326;45.088;7.658;2022-10-18T08:23:32;102.60;;;18.05;;
74799;SDS011;63326;45.088;7.658;2022-10-18T08:25:59;58.55;;;16.42;;
74799;SDS011;63326;45.088;7.658;2022-10-18T08:30:54;39.30;;;11.43;;
74799;SDS011;63326;45.088;7.658;2022-10-18T08:33:20;51.92;;;13.45;;
74799;SDS011;63326;45.088;7.658;2022-10-18T08:35:54;37.80;;;12.32;;
74799;SDS011;63326;45.088;7.658;2022-10-18T08:38:27;29.13;;;12.48;;
74799;SDS011;63326;45.088;7.658;2022-10-18T08:40:55;35.35;;;13.02;;
74799;SDS011;63326;45.088;7.658;2022-10-18T08:43:33;46.15;;;14.13;;
74799;SDS011;63326;45.088;7.658;2022-10-18T08:46:04;36.22;;;12.27;;
74799;SDS011;63326;45.088;7.658;2022-10-18T08:48:41;34.13;;;13.55;;
74799;SDS011;63326;45.088;7.658;2022-10-18T08:51:17;47.03;;;15.65;;
74799;SDS011;63326;45.088;7.658;2022-10-18T08:53:55;33.53;;;13.60;;
74799;SDS011;63326;45.088;7.658;2022-10-18T08:58:54;36.75;;;14.20;;
74799;SDS011;63326;45.088;7.658;2022-10-18T09:24:12;25.17;;;10.15;;
74799;SDS011;63326;45.088;7.658;2022-10-18T09:27:00;23.92;;;11.43;;
74799;SDS011;63326;45.088;7.658;2022-10-18T09:29:36;25.02;;;10.45;;
74799;SDS011;63326;45.088;7.658;2022-10-18T09:37:21;22.45;;;9.65;;
74799;SDS011;63326;45.088;7.658;2022-10-18T09:39:49;26.42;;;10.18;;
74799;SDS011;63326;45.088;7.658;2022-10-18T09:42:22;18.83;;;8.55;;
74799;SDS011;63326;45.088;7.658;2022-10-18T09:47:31;20.70;;;8.48;;
74799;SDS011;63326;45.088;7.658;2022-10-18T09:50:02;19.40;;;8.52;;
74799;SDS011;63326;45.088;7.658;2022-10-18T09:52:41;19.02;;;8.95;;
74799;SDS011;63326;45.088;7.658;2022-10-18T09:55:15;23.75;;;9.45;;
74799;SDS011;63326;45.088;7.658;2022-10-18T09:57:46;26.42;;;10.23;;
74799;SDS011;63326;45.088;7.658;2022-10-18T10:00:17;22.67;;;9.85;;
74799;SDS011;63326;45.088;7.658;2022-10-18T10:02:48;18.60;;;9.32;;
74799;SDS011;63326;45.088;7.658;2022-10-18T10:05:14;23.05;;;9.93;;
74799;SDS011;63326;45.088;7.658;2022-10-18T10:07:42;20.42;;;10.38;;
74799;SDS011;63326;45.088;7.658;2022-10-18T10:10:16;28.05;;;12.23;;
74799;SDS011;63326;45.088;7.658;2022-10-18T10:12:46;22.52;;;11.40;;
74799;SDS011;63326;45.088;7.658;2022-10-18T10:15:23;23.60;;;11.45;;
74799;SDS011;63326;45.088;7.658;2022-10-18T10:18:02;29.77;;;13.75;;
74799;SDS011;63326;45.088;7.658;2022-10-18T10:20:49;25.85;;;13.38;;
74799;SDS011;63326;45.088;7.658;2022-10-18T10:25:51;25.13;;;12.88;;
74799;SDS011;63326;45.088;7.658;2022-10-18T10:30:49;32.15;;;14.30;;
74799;SDS011;63326;45.088;7.658;2022-10-18T10:36:05;29.60;;;15.40;;
74799;SDS011;63326;45.088;7.658;2022-10-18T10:38:41;33.58;;;15.32;;
74799;SDS011;63326;45.088;7.658;2022-10-18T10:41:18;32.60;;;16.33;;
74799;SDS011;63326;45.088;7.658;2022-10-18T10:43:46;32.97;;;14.73;;
74799;SDS011;63326;45.088;7.658;2022-10-18T10:46:16;30.75;;;16.33;;
74799;SDS011;63326;45.088;7.658;2022-10-18T10:48:46;40.15;;;18.00;;
74799;SDS011;63326;45.088;7.658;2022-10-18T10:51:13;33.58;;;17.42;;
74799;SDS011;63326;45.088;7.658;2022-10-18T10:53:47;41.03;;;18.70;;
74799;SDS011;63326;45.088;7.658;2022-10-18T10:56:27;33.88;;;16.92;;
74799;SDS011;63326;45.088;7.658;2022-10-18T11:01:40;41.15;;;19.08;;
74799;SDS011;63326;45.088;7.658;2022-10-18T11:09:52;40.05;;;18.67;;
74799;SDS011;63326;45.088;7.658;2022-10-18T11:12:25;36.28;;;19.35;;
74799;SDS011;63326;45.088;7.658;2022-10-18T11:14:57;40.67;;;20.35;;
74799;SDS011;63326;45.088;7.658;2022-10-18T11:23:16;41.38;;;19.02;;
74799;SDS011;63326;45.088;7.658;2022-10-18T11:41:05;38.85;;;19.50;;
74799;SDS011;63326;45.088;7.658;2022-10-18T11:51:28;37.55;;;18.20;;
74799;SDS011;63326;45.088;7.658;2022-10-18T12:02:44;39.00;;;18.55;;
74799;SDS011;63326;45.088;7.658;2022-10-18T12:05:14;38.00;;;18.58;;
74799;SDS011;63326;45.088;7.658;2022-10-18T12:07:57;36.50;;;17.33;;
74799;SDS011;63326;45.088;7.658;2022-10-18T12:10:34;32.13;;;15.70;;
74799;SDS011;63326;45.088;7.658;2022-10-18T12:14:06;30.02;;;14.63;;
74799;SDS011;63326;45.088;7.658;2022-10-18T12:16:19;38.15;;;16.85;;
74799;SDS011;63326;45.088;7.658;2022-10-18T12:19:11;32.72;;;17.27;;
74799;SDS011;63326;45.088;7.658;2022-10-18T12:21:50;34.25;;;18.65;;
74799;SDS011;63326;45.088;7.658;2022-10-18T12:24:19;40.55;;;18.58;;
74799;SDS011;63326;45.088;7.658;2022-10-18T12:26:47;36.53;;;17.23;;
74799;SDS011;63326;45.088;7.658;2022-10-18T12:29:25;33.33;;;16.23;;
74799;SDS011;63326;45.088;7.658;2022-10-18T12:32:00;32.67;;;16.13;;
74799;SDS011;63326;45.088;7.658;2022-10-18T12:34:47;32.22;;;15.43;;
74799;SDS011;63326;45.088;7.658;2022-10-18T12:37:21;32.58;;;14.30;;
74799;SDS011;63326;45.088;7.658;2022-10-18T12:39:58;28.00;;;14.55;;
74799;SDS011;63326;45.088;7.658;2022-10-18T12:42:44;29.08;;;14.50;;
74799;SDS011;63326;45.088;7.658;2022-10-18T12:47:38;29.75;;;14.25;;
74799;SDS011;63326;45.088;7.658;2022-10-18T12:50:06;31.42;;;14.95;;
74799;SDS011;63326;45.088;7.658;2022-10-18T12:53:00;27.70;;;13.23;;
74799;SDS011;63326;45.088;7.658;2022-10-18T12:55:30;27.27;;;13.30;;
74799;SDS011;63326;45.088;7.658;2022-10-18T13:16:19;24.10;;;13.15;;
74799;SDS011;63326;45.088;7.658;2022-10-18T13:18:53;27.00;;;12.63;;
74799;SDS011;63326;45.088;7.658;2022-10-18T13:21:26;26.08;;;13.07;;
74799;SDS011;63326;45.088;7.658;2022-10-18T13:26:35;19.90;;;11.23;;
74799;SDS011;63326;45.088;7.658;2022-10-18T15:56:44;14.27;;;7.05;;
74799;SDS011;63326;45.088;7.658;2022-10-18T16:01:47;15.68;;;7.50;;
74799;SDS011;63326;45.088;7.658;2022-10-18T16:04:22;15.60;;;8.35;;
74799;SDS011;63326;45.088;7.658;2022-10-18T16:06:50;16.02;;;8.45;;
74799;SDS011;63326;45.088;7.658;2022-10-18T16:09:18;15.65;;;8.57;;
74799;SDS011;63326;45.088;7.658;2022-10-18T16:14:12;15.98;;;7.80;;
74799;SDS011;63326;45.088;7.658;2022-10-18T16:16:39;16.27;;;7.45;;
74799;SDS011;63326;45.088;7.658;2022-10-18T16:19:06;18.70;;;8.98;;
74799;SDS011;63326;45.088;7.658;2022-10-18T16:21:34;14.65;;;7.32;;
74799;SDS011;63326;45.088;7.658;2022-10-18T16:24:02;15.82;;;8.98;;
74799;SDS011;63326;45.088;7.658;2022-10-18T16:26:30;18.50;;;7.38;;
74799;SDS011;63326;45.088;7.658;2022-10-18T16:28:57;15.85;;;8.20;;
74799;SDS011;63326;45.088;7.658;2022-10-18T16:31:25;15.18;;;8.88;;
74799;SDS011;63326;45.088;7.658;2022-10-18T16:33:53;15.45;;;8.90;;
74799;SDS011;63326;45.088;7.658;2022-10-18T16:36:24;19.70;;;8.18;;
74799;SDS011;63326;45.088;7.658;2022-10-18T16:38:52;16.67;;;7.90;;
74799;SDS011;63326;45.088;7.658;2022-10-18T16:41:20;20.33;;;8.65;;
74799;SDS011;63326;45.088;7.658;2022-10-18T16:43:47;17.23;;;8.55;;
74799;SDS011;63326;45.088;7.658;2022-10-18T16:46:18;15.10;;;8.50;;
74799;SDS011;63326;45.088;7.658;2022-10-18T16:48:46;12.95;;;7.25;;
74799;SDS011;63326;45.088;7.658;2022-10-18T16:51:14;17.25;;;8.43;;
74799;SDS011;63326;45.088;7.658;2022-10-18T16:53:41;20.17;;;8.23;;
74799;SDS011;63326;45.088;7.658;2022-10-18T16:56:18;13.27;;;8.02;;
74799;SDS011;63326;45.088;7.658;2022-10-18T16:58:47;17.48;;;9.38;;
74799;SDS011;63326;45.088;7.658;2022-10-18T17:01:14;17.20;;;8.45;;
74799;SDS011;63326;45.088;7.658;2022-10-18T17:03:42;19.27;;;8.50;;
74799;SDS011;63326;45.088;7.658;2022-10-18T17:06:28;18.75;;;8.73;;
74799;SDS011;63326;45.088;7.658;2022-10-18T17:08:56;18.95;;;8.25;;
74799;SDS011;63326;45.088;7.658;2022-10-18T17:11:23;20.30;;;10.15;;
74799;SDS011;63326;45.088;7.658;2022-10-18T17:13:51;20.08;;;9.90;;
74799;SDS011;63326;45.088;7.658;2022-10-18T17:16:22;20.98;;;10.57;;
74799;SDS011;63326;45.088;7.658;2022-10-18T17:18:58;19.63;;;11.02;;
74799;SDS011;63326;45.088;7.658;2022-10-18T17:21:27;19.15;;;10.63;;
74799;SDS011;63326;45.088;7.658;2022-10-18T17:23:54;21.50;;;10.25;;
74799;SDS011;63326;45.088;7.658;2022-10-18T17:26:21;24.35;;;11.27;;
74799;SDS011;63326;45.088;7.658;2022-10-18T17:28:55;20.05;;;11.10;;
74799;SDS011;63326;45.088;7.658;2022-10-18T17:31:23;21.85;;;11.02;;
74799;SDS011;63326;45.088;7.658;2022-10-18T17:33:50;19.80;;;9.70;;
74799;SDS011;63326;45.088;7.658;2022-10-18T17:36:19;21.52;;;11.38;;
74799;SDS011;63326;45.088;7.658;2022-10-18T17:38:50;19.65;;;10.98;;
74799;SDS011;63326;45.088;7.658;2022-10-18T17:41:20;25.08;;;12.05;;
74799;SDS011;63326;45.088;7.658;2022-10-18T17:43:46;20.52;;;10.98;;
74799;SDS011;63326;45.088;7.658;2022-10-18T17:46:14;18.25;;;10.00;;
74799;SDS011;63326;45.088;7.658;2022-10-18T17:48:41;20.25;;;10.90;;
74799;SDS011;63326;45.088;7.658;2022-10-18T17:51:08;23.48;;;11.48;;
74799;SDS011;63326;45.088;7.658;2022-10-18T17:56:02;21.38;;;11.38;;
74799;SDS011;63326;45.088;7.658;2022-10-18T17:58:30;21.15;;;10.02;;
74799;SDS011;63326;45.088;7.658;2022-10-18T18:00:57;21.80;;;10.85;;
74799;SDS011;63326;45.088;7.658;2022-10-18T18:03:32;20.95;;;10.73;;
74799;SDS011;63326;45.088;7.658;2022-10-18T18:05:59;19.40;;;10.38;;
74799;SDS011;63326;45.088;7.658;2022-10-18T18:08:25;23.88;;;11.30;;
74799;SDS011;63326;45.088;7.658;2022-10-18T18:10:53;21.58;;;12.20;;
74799;SDS011;63326;45.088;7.658;2022-10-18T18:13:20;24.60;;;10.93;;
74799;SDS011;63326;45.088;7.658;2022-10-18T18:15:47;23.10;;;12.13;;
74799;SDS011;63326;45.088;7.658;2022-10-18T18:18:13;23.48;;;11.80;;
74799;SDS011;63326;45.088;7.658;2022-10-18T18:20:40;27.92;;;12.15;;
74799;SDS011;63326;45.088;7.658;2022-10-18T18:23:06;22.67;;;11.35;;
74799;SDS011;63326;45.088;7.658;2022-10-18T18:25:33;26.70;;;11.85;;
74799;SDS011;63326;45.088;7.658;2022-10-18T18:27:59;26.88;;;12.48;;
74799;SDS011;63326;45.088;7.658;2022-10-18T18:30:32;23.85;;;10.43;;
74799;SDS011;63326;45.088;7.658;2022-10-18T18:32:59;19.38;;;10.80;;
74799;SDS011;63326;45.088;7.658;2022-10-18T18:35:25;24.00;;;10.98;;
74799;SDS011;63326;45.088;7.658;2022-10-18T18:37:52;28.15;;;12.82;;
74799;SDS011;63326;45.088;7.658;2022-10-18T18:40:18;24.20;;;11.90;;
74799;SDS011;63326;45.088;7.658;2022-10-18T18:42:45;21.77;;;10.23;;
74799;SDS011;63326;45.088;7.658;2022-10-18T18:45:32;21.33;;;10.57;;
74799;SDS011;63326;45.088;7.658;2022-10-18T18:47:58;24.67;;;13.48;;
74799;SDS011;63326;45.088;7.658;2022-10-18T18:50:25;27.40;;;12.27;;
74799;SDS011;63326;45.088;7.658;2022-10-18T18:52:51;21.17;;;11.27;;
74799;SDS011;63326;45.088;7.658;2022-10-18T18:55:18;23.30;;;12.55;;
74799;SDS011;63326;45.088;7.658;2022-10-18T18:57:44;26.55;;;12.38;;
74799;SDS011;63326;45.088;7.658;2022-10-18T19:00:11;26.30;;;13.70;;
74799;SDS011;63326;45.088;7.658;2022-10-18T19:02:38;25.08;;;12.52;;
74799;SDS011;63326;45.088;7.658;2022-10-18T19:05:05;25.48;;;11.85;;
74799;SDS011;63326;45.088;7.658;2022-10-18T19:07:31;31.08;;;12.27;;
74799;SDS011;63326;45.088;7.658;2022-10-18T19:10:00;23.48;;;12.10;;
74799;SDS011;63326;45.088;7.658;2022-10-18T19:12:27;27.17;;;11.40;;
74799;SDS011;63326;45.088;7.658;2022-10-18T19:14:53;26.02;;;12.30;;
74799;SDS011;63326;45.088;7.658;2022-10-18T19:17:20;26.58;;;13.30;;
74799;SDS011;63326;45.088;7.658;2022-10-18T19:19:47;24.83;;;12.32;;
74799;SDS011;63326;45.088;7.658;2022-10-18T19:22:14;23.33;;;11.18;;
74799;SDS011;63326;45.088;7.658;2022-10-18T19:24:40;24.20;;;11.48;;
74799;SDS011;63326;45.088;7.658;2022-10-18T19:27:08;22.88;;;12.63;;